sensor_id;sensor_type;location;lat;lon;timestamp;P1;durP1;ratioP1;P2;durP2;ratioP2
24715;SDS011;12822;50.124;8.678;2024-02-23T00:00:09;1.15;;;0.50;;
24715;SDS011;12822;50.124;8.678;2024-02-23T00:02:36;4.32;;;0.70;;
24715;SDS011;12822;50.124;8.678;2024-02-23T00:05:02;3.10;;;1.10;;
24715;SDS011;12822;50.124;8.678;2024-02-23T00:07:28;4.00;;;0.80;;
24715;SDS011;12822;50.124;8.678;2024-02-23T00:09:54;6.57;;;0.77;;
24715;SDS011;12822;50.124;8.678;2024-02-23T00:12:20;3.65;;;0.73;;
24715;SDS011;12822;50.124;8.678;2024-02-23T00:14:46;3.65;;;1.00;;
24715;SDS011;12822;50.124;8.678;2024-02-23T00:17:12;3.83;;;0.63;;
24715;SDS011;12822;50.124;8.678;2024-02-23T00:19:38;1.17;;;0.60;;
24715;SDS011;12822;50.124;8.678;2024-02-23T00:22:04;6.82;;;0.80;;
24715;SDS011;12822;50.124;8.678;2024-02-23T00:24:30;3.45;;;1.00;;
24715;SDS011;12822;50.124;8.678;2024-02-23T00:26:56;3.80;;;0.93;;
24715;SDS011;12822;50.124;8.678;2024-02-23T00:29:22;3.22;;;0.90;;
24715;SDS011;12822;50.124;8.678;2024-02-23T00:31:48;4.78;;;0.68;;
24715;SDS011;12822;50.124;8.678;2024-02-23T00:34:14;6.45;;;0.75;;
24715;SDS011;12822;50.124;8.678;2024-02-23T00:36:41;2.88;;;0.70;;
24715;SDS011;12822;50.124;8.678;2024-02-23T00:39:07;2.88;;;0.82;;
24715;SDS011;12822;50.124;8.678;2024-02-23T00:41:33;6.10;;;1.30;;
24715;SDS011;12822;50.124;8.678;2024-02-23T00:43:59;5.05;;;0.80;;
24715;SDS011;12822;50.124;8.678;2024-02-23T00:46:25;5.25;;;1.20;;
24715;SDS011;12822;50.124;8.678;2024-02-23T00:48:51;5.25;;;0.82;;
24715;SDS011;12822;50.124;8.678;2024-02-23T00:51:17;1.95;;;0.90;;
24715;SDS011;12822;50.124;8.678;2024-02-23T00:53:43;3.63;;;0.70;;
24715;SDS011;12822;50.124;8.678;2024-02-23T00:56:09;7.38;;;1.13;;
24715;SDS011;12822;50.124;8.678;2024-02-23T00:58:35;3.55;;;0.90;;
24715;SDS011;12822;50.124;8.678;2024-02-23T01:01:01;4.38;;;0.70;;
24715;SDS011;12822;50.124;8.678;2024-02-23T01:03:27;4.63;;;0.90;;
24715;SDS011;12822;50.124;8.678;2024-02-23T01:05:53;4.97;;;0.93;;
24715;SDS011;12822;50.124;8.678;2024-02-23T01:08:19;2.20;;;0.73;;
24715;SDS011;12822;50.124;8.678;2024-02-23T01:10:45;3.85;;;1.05;;
24715;SDS011;12822;50.124;8.678;2024-02-23T01:13:11;4.97;;;1.00;;
24715;SDS011;12822;50.124;8.678;2024-02-23T01:15:37;3.75;;;0.90;;
24715;SDS011;12822;50.124;8.678;2024-02-23T01:18:03;8.38;;;0.90;;
24715;SDS011;12822;50.124;8.678;2024-02-23T01:20:32;3.22;;;0.65;;
24715;SDS011;12822;50.124;8.678;2024-02-23T01:22:58;3.55;;;0.68;;
24715;SDS011;12822;50.124;8.678;2024-02-23T01:25:24;4.40;;;0.88;;
24715;SDS011;12822;50.124;8.678;2024-02-23T01:27:50;5.30;;;0.70;;
24715;SDS011;12822;50.124;8.678;2024-02-23T01:30:16;3.38;;;0.80;;
24715;SDS011;12822;50.124;8.678;2024-02-23T01:32:43;3.65;;;0.80;;
24715;SDS011;12822;50.124;8.678;2024-02-23T01:35:09;3.67;;;0.85;;
24715;SDS011;12822;50.124;8.678;2024-02-23T01:37:35;3.42;;;0.70;;
24715;SDS011;12822;50.124;8.678;2024-02-23T01:40:02;5.45;;;0.98;;
24715;SDS011;12822;50.124;8.678;2024-02-23T01:42:28;3.28;;;0.80;;
24715;SDS011;12822;50.124;8.678;2024-02-23T01:44:54;1.33;;;0.50;;
24715;SDS011;12822;50.124;8.678;2024-02-23T01:47:23;7.00;;;1.10;;
24715;SDS011;12822;50.124;8.678;2024-02-23T01:49:50;3.45;;;1.00;;
24715;SDS011;12822;50.124;8.678;2024-02-23T01:52:17;2.83;;;0.73;;
24715;SDS011;12822;50.124;8.678;2024-02-23T01:54:43;5.00;;;0.70;;
24715;SDS011;12822;50.124;8.678;2024-02-23T01:57:09;2.75;;;0.63;;
24715;SDS011;12822;50.124;8.678;2024-02-23T01:59:36;6.00;;;0.65;;
24715;SDS011;12822;50.124;8.678;2024-02-23T02:02:03;2.05;;;0.47;;
24715;SDS011;12822;50.124;8.678;2024-02-23T02:04:30;3.95;;;0.70;;
24715;SDS011;12822;50.124;8.678;2024-02-23T02:06:56;6.78;;;0.80;;
24715;SDS011;12822;50.124;8.678;2024-02-23T02:09:22;4.25;;;0.90;;
24715;SDS011;12822;50.124;8.678;2024-02-23T02:11:49;2.70;;;0.52;;
24715;SDS011;12822;50.124;8.678;2024-02-23T02:14:15;2.75;;;0.65;;
24715;SDS011;12822;50.124;8.678;2024-02-23T02:16:41;3.58;;;0.65;;
24715;SDS011;12822;50.124;8.678;2024-02-23T02:19:08;3.10;;;0.80;;
24715;SDS011;12822;50.124;8.678;2024-02-23T02:21:34;2.63;;;0.70;;
24715;SDS011;12822;50.124;8.678;2024-02-23T02:24:00;3.53;;;0.90;;
24715;SDS011;12822;50.124;8.678;2024-02-23T02:26:27;2.45;;;0.70;;
24715;SDS011;12822;50.124;8.678;2024-02-23T02:28:53;3.47;;;0.70;;
24715;SDS011;12822;50.124;8.678;2024-02-23T02:31:19;3.45;;;0.70;;
24715;SDS011;12822;50.124;8.678;2024-02-23T02:33:45;4.78;;;1.02;;
24715;SDS011;12822;50.124;8.678;2024-02-23T02:36:11;2.08;;;1.27;;
24715;SDS011;12822;50.124;8.678;2024-02-23T02:38:37;6.93;;;0.90;;
24715;SDS011;12822;50.124;8.678;2024-02-23T02:41:03;4.25;;;0.80;;
24715;SDS011;12822;50.124;8.678;2024-02-23T02:43:30;1.23;;;0.50;;
24715;SDS011;12822;50.124;8.678;2024-02-23T02:45:56;3.67;;;0.60;;
24715;SDS011;12822;50.124;8.678;2024-02-23T02:48:22;5.20;;;0.80;;
24715;SDS011;12822;50.124;8.678;2024-02-23T02:50:48;2.20;;;0.70;;
24715;SDS011;12822;50.124;8.678;2024-02-23T02:53:14;2.80;;;0.50;;
24715;SDS011;12822;50.124;8.678;2024-02-23T02:55:43;3.08;;;0.68;;
24715;SDS011;12822;50.124;8.678;2024-02-23T02:58:13;5.47;;;1.20;;
24715;SDS011;12822;50.124;8.678;2024-02-23T03:00:39;4.32;;;0.80;;
24715;SDS011;12822;50.124;8.678;2024-02-23T03:03:05;3.88;;;0.63;;
24715;SDS011;12822;50.124;8.678;2024-02-23T03:05:31;3.13;;;0.80;;
24715;SDS011;12822;50.124;8.678;2024-02-23T03:07:57;4.22;;;0.82;;
24715;SDS011;12822;50.124;8.678;2024-02-23T03:10:23;3.08;;;0.85;;
24715;SDS011;12822;50.124;8.678;2024-02-23T03:12:49;3.47;;;0.80;;
24715;SDS011;12822;50.124;8.678;2024-02-23T03:15:15;4.20;;;0.70;;
24715;SDS011;12822;50.124;8.678;2024-02-23T03:17:41;3.90;;;0.60;;
24715;SDS011;12822;50.124;8.678;2024-02-23T03:20:07;2.22;;;0.60;;
24715;SDS011;12822;50.124;8.678;2024-02-23T03:22:34;4.78;;;0.82;;
24715;SDS011;12822;50.124;8.678;2024-02-23T03:25:00;2.60;;;0.60;;
24715;SDS011;12822;50.124;8.678;2024-02-23T03:27:33;4.25;;;0.90;;
24715;SDS011;12822;50.124;8.678;2024-02-23T03:29:58;5.22;;;0.63;;
24715;SDS011;12822;50.124;8.678;2024-02-23T03:32:24;3.38;;;0.73;;
24715;SDS011;12822;50.124;8.678;2024-02-23T03:34:50;5.65;;;0.93;;
24715;SDS011;12822;50.124;8.678;2024-02-23T03:37:16;6.05;;;0.80;;
24715;SDS011;12822;50.124;8.678;2024-02-23T03:39:42;4.60;;;0.70;;
24715;SDS011;12822;50.124;8.678;2024-02-23T03:42:08;1.23;;;0.60;;
24715;SDS011;12822;50.124;8.678;2024-02-23T03:44:34;3.30;;;0.60;;
24715;SDS011;12822;50.124;8.678;2024-02-23T03:47:00;4.40;;;0.80;;
24715;SDS011;12822;50.124;8.678;2024-02-23T03:49:26;5.55;;;1.00;;
24715;SDS011;12822;50.124;8.678;2024-02-23T03:51:52;4.15;;;0.82;;
24715;SDS011;12822;50.124;8.678;2024-02-23T03:54:18;4.82;;;1.02;;
24715;SDS011;12822;50.124;8.678;2024-02-23T03:56:44;2.95;;;0.93;;
24715;SDS011;12822;50.124;8.678;2024-02-23T03:59:11;4.07;;;0.55;;
24715;SDS011;12822;50.124;8.678;2024-02-23T04:01:37;4.20;;;0.82;;
24715;SDS011;12822;50.124;8.678;2024-02-23T04:04:04;6.82;;;0.90;;
24715;SDS011;12822;50.124;8.678;2024-02-23T04:06:31;3.95;;;1.20;;
24715;SDS011;12822;50.124;8.678;2024-02-23T04:08:57;7.20;;;0.93;;
24715;SDS011;12822;50.124;8.678;2024-02-23T04:11:23;4.82;;;0.70;;
24715;SDS011;12822;50.124;8.678;2024-02-23T04:13:49;5.45;;;0.80;;
24715;SDS011;12822;50.124;8.678;2024-02-23T04:16:15;4.32;;;1.00;;
24715;SDS011;12822;50.124;8.678;2024-02-23T04:18:41;2.80;;;0.80;;
24715;SDS011;12822;50.124;8.678;2024-02-23T04:21:07;5.07;;;0.80;;
24715;SDS011;12822;50.124;8.678;2024-02-23T04:23:33;4.78;;;0.80;;
24715;SDS011;12822;50.124;8.678;2024-02-23T04:25:59;5.80;;;1.00;;
24715;SDS011;12822;50.124;8.678;2024-02-23T04:28:24;7.28;;;1.27;;
24715;SDS011;12822;50.124;8.678;2024-02-23T04:30:53;4.85;;;0.90;;
24715;SDS011;12822;50.124;8.678;2024-02-23T04:33:18;3.53;;;0.82;;
24715;SDS011;12822;50.124;8.678;2024-02-23T04:35:44;1.95;;;0.80;;
24715;SDS011;12822;50.124;8.678;2024-02-23T04:38:11;6.50;;;1.38;;
24715;SDS011;12822;50.124;8.678;2024-02-23T04:40:37;9.35;;;1.05;;
24715;SDS011;12822;50.124;8.678;2024-02-23T04:43:03;3.03;;;0.95;;
24715;SDS011;12822;50.124;8.678;2024-02-23T04:45:29;4.55;;;1.10;;
24715;SDS011;12822;50.124;8.678;2024-02-23T04:47:55;5.03;;;0.90;;
24715;SDS011;12822;50.124;8.678;2024-02-23T04:50:21;3.60;;;0.90;;
24715;SDS011;12822;50.124;8.678;2024-02-23T04:52:47;6.80;;;0.95;;
24715;SDS011;12822;50.124;8.678;2024-02-23T04:55:15;2.08;;;1.00;;
24715;SDS011;12822;50.124;8.678;2024-02-23T04:57:41;5.97;;;0.80;;
24715;SDS011;12822;50.124;8.678;2024-02-23T05:00:07;6.63;;;0.95;;
24715;SDS011;12822;50.124;8.678;2024-02-23T05:02:33;4.57;;;1.05;;
24715;SDS011;12822;50.124;8.678;2024-02-23T05:05:03;4.63;;;1.33;;
24715;SDS011;12822;50.124;8.678;2024-02-23T05:07:30;4.82;;;1.10;;
24715;SDS011;12822;50.124;8.678;2024-02-23T05:09:59;4.07;;;1.02;;
24715;SDS011;12822;50.124;8.678;2024-02-23T05:12:25;4.20;;;1.23;;
24715;SDS011;12822;50.124;8.678;2024-02-23T05:14:51;8.35;;;1.05;;
24715;SDS011;12822;50.124;8.678;2024-02-23T05:17:17;6.70;;;1.20;;
24715;SDS011;12822;50.124;8.678;2024-02-23T05:19:43;4.60;;;1.17;;
24715;SDS011;12822;50.124;8.678;2024-02-23T05:22:11;8.77;;;1.13;;
24715;SDS011;12822;50.124;8.678;2024-02-23T05:24:37;3.92;;;1.13;;
24715;SDS011;12822;50.124;8.678;2024-02-23T05:27:03;5.95;;;1.88;;
24715;SDS011;12822;50.124;8.678;2024-02-23T05:29:29;6.63;;;1.58;;
24715;SDS011;12822;50.124;8.678;2024-02-23T05:31:55;8.30;;;1.40;;
24715;SDS011;12822;50.124;8.678;2024-02-23T05:34:21;5.05;;;1.38;;
24715;SDS011;12822;50.124;8.678;2024-02-23T05:36:50;2.42;;;0.98;;
24715;SDS011;12822;50.124;8.678;2024-02-23T05:39:16;8.85;;;1.45;;
24715;SDS011;12822;50.124;8.678;2024-02-23T05:41:42;4.57;;;1.52;;
24715;SDS011;12822;50.124;8.678;2024-02-23T05:44:08;7.07;;;1.63;;
24715;SDS011;12822;50.124;8.678;2024-02-23T05:46:35;7.32;;;1.52;;
24715;SDS011;12822;50.124;8.678;2024-02-23T05:49:01;5.93;;;1.33;;
24715;SDS011;12822;50.124;8.678;2024-02-23T05:51:29;7.32;;;1.33;;
24715;SDS011;12822;50.124;8.678;2024-02-23T05:53:55;4.85;;;1.15;;
24715;SDS011;12822;50.124;8.678;2024-02-23T05:56:21;5.68;;;1.20;;
24715;SDS011;12822;50.124;8.678;2024-02-23T05:58:48;6.53;;;1.52;;
24715;SDS011;12822;50.124;8.678;2024-02-23T06:01:14;3.13;;;1.23;;
24715;SDS011;12822;50.124;8.678;2024-02-23T06:03:40;3.72;;;1.25;;
24715;SDS011;12822;50.124;8.678;2024-02-23T06:06:07;6.10;;;1.30;;
24715;SDS011;12822;50.124;8.678;2024-02-23T06:08:33;5.10;;;1.48;;
24715;SDS011;12822;50.124;8.678;2024-02-23T06:10:59;10.10;;;1.88;;
24715;SDS011;12822;50.124;8.678;2024-02-23T06:13:25;6.95;;;1.35;;
24715;SDS011;12822;50.124;8.678;2024-02-23T06:15:51;10.25;;;1.50;;
24715;SDS011;12822;50.124;8.678;2024-02-23T06:18:17;4.43;;;1.27;;
24715;SDS011;12822;50.124;8.678;2024-02-23T06:20:43;20.73;;;1.95;;
24715;SDS011;12822;50.124;8.678;2024-02-23T06:23:09;3.92;;;1.23;;
24715;SDS011;12822;50.124;8.678;2024-02-23T06:25:35;6.57;;;1.52;;
24715;SDS011;12822;50.124;8.678;2024-02-23T06:28:01;7.43;;;1.17;;
24715;SDS011;12822;50.124;8.678;2024-02-23T06:30:27;5.13;;;1.42;;
24715;SDS011;12822;50.124;8.678;2024-02-23T06:32:53;3.67;;;1.48;;
24715;SDS011;12822;50.124;8.678;2024-02-23T06:35:19;6.53;;;1.15;;
24715;SDS011;12822;50.124;8.678;2024-02-23T06:37:47;6.82;;;1.27;;
24715;SDS011;12822;50.124;8.678;2024-02-23T06:40:13;6.35;;;1.10;;
24715;SDS011;12822;50.124;8.678;2024-02-23T06:42:39;5.40;;;1.40;;
24715;SDS011;12822;50.124;8.678;2024-02-23T06:45:05;10.30;;;1.00;;
24715;SDS011;12822;50.124;8.678;2024-02-23T06:47:32;5.85;;;1.25;;
24715;SDS011;12822;50.124;8.678;2024-02-23T06:49:59;3.78;;;0.85;;
24715;SDS011;12822;50.124;8.678;2024-02-23T06:52:25;6.05;;;1.20;;
24715;SDS011;12822;50.124;8.678;2024-02-23T06:54:51;4.72;;;1.15;;
24715;SDS011;12822;50.124;8.678;2024-02-23T06:57:17;8.50;;;1.48;;
24715;SDS011;12822;50.124;8.678;2024-02-23T06:59:43;5.55;;;1.40;;
24715;SDS011;12822;50.124;8.678;2024-02-23T07:02:09;8.10;;;1.30;;
24715;SDS011;12822;50.124;8.678;2024-02-23T07:04:35;3.38;;;1.02;;
24715;SDS011;12822;50.124;8.678;2024-02-23T07:07:01;16.98;;;2.15;;
24715;SDS011;12822;50.124;8.678;2024-02-23T07:09:32;9.35;;;1.00;;
24715;SDS011;12822;50.124;8.678;2024-02-23T07:11:58;5.95;;;1.67;;
24715;SDS011;12822;50.124;8.678;2024-02-23T07:14:24;8.77;;;2.25;;
24715;SDS011;12822;50.124;8.678;2024-02-23T07:16:50;7.47;;;1.50;;
24715;SDS011;12822;50.124;8.678;2024-02-23T07:19:19;7.82;;;1.55;;
24715;SDS011;12822;50.124;8.678;2024-02-23T07:21:45;5.05;;;0.80;;
24715;SDS011;12822;50.124;8.678;2024-02-23T07:24:11;6.70;;;1.33;;
24715;SDS011;12822;50.124;8.678;2024-02-23T07:26:37;8.68;;;1.58;;
24715;SDS011;12822;50.124;8.678;2024-02-23T07:29:03;5.45;;;1.02;;
24715;SDS011;12822;50.124;8.678;2024-02-23T07:31:29;3.55;;;1.25;;
24715;SDS011;12822;50.124;8.678;2024-02-23T07:33:55;8.63;;;1.70;;
24715;SDS011;12822;50.124;8.678;2024-02-23T07:36:21;7.35;;;1.40;;
24715;SDS011;12822;50.124;8.678;2024-02-23T07:38:47;11.20;;;1.40;;
24715;SDS011;12822;50.124;8.678;2024-02-23T07:41:14;6.85;;;1.48;;
24715;SDS011;12822;50.124;8.678;2024-02-23T07:43:40;4.05;;;1.52;;
24715;SDS011;12822;50.124;8.678;2024-02-23T07:46:06;5.70;;;1.42;;
24715;SDS011;12822;50.124;8.678;2024-02-23T07:48:34;9.15;;;1.17;;
24715;SDS011;12822;50.124;8.678;2024-02-23T07:51:00;8.73;;;1.45;;
24715;SDS011;12822;50.124;8.678;2024-02-23T07:53:27;5.40;;;1.50;;
24715;SDS011;12822;50.124;8.678;2024-02-23T07:55:53;6.82;;;1.23;;
24715;SDS011;12822;50.124;8.678;2024-02-23T07:58:19;4.68;;;1.17;;
24715;SDS011;12822;50.124;8.678;2024-02-23T08:00:46;9.40;;;1.83;;
24715;SDS011;12822;50.124;8.678;2024-02-23T08:03:12;8.00;;;1.40;;
24715;SDS011;12822;50.124;8.678;2024-02-23T08:05:38;6.55;;;1.30;;
24715;SDS011;12822;50.124;8.678;2024-02-23T08:08:04;9.65;;;1.30;;
24715;SDS011;12822;50.124;8.678;2024-02-23T08:10:31;11.55;;;1.38;;
24715;SDS011;12822;50.124;8.678;2024-02-23T08:12:58;10.25;;;1.63;;
24715;SDS011;12822;50.124;8.678;2024-02-23T08:15:25;8.00;;;1.30;;
24715;SDS011;12822;50.124;8.678;2024-02-23T08:17:51;8.80;;;1.50;;
24715;SDS011;12822;50.124;8.678;2024-02-23T08:20:17;6.15;;;1.30;;
24715;SDS011;12822;50.124;8.678;2024-02-23T08:22:43;4.68;;;1.10;;
24715;SDS011;12822;50.124;8.678;2024-02-23T08:25:09;17.65;;;1.63;;
24715;SDS011;12822;50.124;8.678;2024-02-23T08:27:35;9.98;;;1.70;;
24715;SDS011;12822;50.124;8.678;2024-02-23T08:30:01;11.57;;;1.23;;
24715;SDS011;12822;50.124;8.678;2024-02-23T08:32:28;8.65;;;1.40;;
24715;SDS011;12822;50.124;8.678;2024-02-23T08:34:54;9.13;;;1.35;;
24715;SDS011;12822;50.124;8.678;2024-02-23T08:37:25;3.97;;;1.30;;
24715;SDS011;12822;50.124;8.678;2024-02-23T08:39:51;4.25;;;1.10;;
24715;SDS011;12822;50.124;8.678;2024-02-23T08:42:17;7.60;;;1.65;;
24715;SDS011;12822;50.124;8.678;2024-02-23T08:44:43;9.70;;;1.30;;
24715;SDS011;12822;50.124;8.678;2024-02-23T08:47:09;9.50;;;1.75;;
24715;SDS011;12822;50.124;8.678;2024-02-23T08:49:35;13.25;;;1.55;;
24715;SDS011;12822;50.124;8.678;2024-02-23T08:52:01;6.97;;;1.20;;
24715;SDS011;12822;50.124;8.678;2024-02-23T08:54:28;8.10;;;1.42;;
24715;SDS011;12822;50.124;8.678;2024-02-23T08:56:54;4.55;;;1.15;;
24715;SDS011;12822;50.124;8.678;2024-02-23T08:59:20;8.82;;;1.67;;
24715;SDS011;12822;50.124;8.678;2024-02-23T09:01:46;6.22;;;1.45;;
24715;SDS011;12822;50.124;8.678;2024-02-23T09:04:13;11.35;;;1.98;;
24715;SDS011;12822;50.124;8.678;2024-02-23T09:06:39;11.50;;;1.70;;
24715;SDS011;12822;50.124;8.678;2024-02-23T09:09:05;10.68;;;1.45;;
24715;SDS011;12822;50.124;8.678;2024-02-23T09:11:31;9.80;;;1.30;;
24715;SDS011;12822;50.124;8.678;2024-02-23T09:13:57;7.60;;;1.60;;
24715;SDS011;12822;50.124;8.678;2024-02-23T09:16:23;13.52;;;2.63;;
24715;SDS011;12822;50.124;8.678;2024-02-23T09:18:49;7.45;;;1.58;;
24715;SDS011;12822;50.124;8.678;2024-02-23T09:21:16;10.27;;;1.83;;
24715;SDS011;12822;50.124;8.678;2024-02-23T09:23:42;10.82;;;1.27;;
24715;SDS011;12822;50.124;8.678;2024-02-23T09:26:11;6.88;;;1.10;;
24715;SDS011;12822;50.124;8.678;2024-02-23T09:28:37;8.65;;;1.38;;
24715;SDS011;12822;50.124;8.678;2024-02-23T09:31:03;10.88;;;1.48;;
24715;SDS011;12822;50.124;8.678;2024-02-23T09:33:30;11.20;;;1.77;;
24715;SDS011;12822;50.124;8.678;2024-02-23T09:35:56;10.57;;;2.05;;
24715;SDS011;12822;50.124;8.678;2024-02-23T09:38:22;7.88;;;1.38;;
24715;SDS011;12822;50.124;8.678;2024-02-23T09:40:52;10.60;;;1.33;;
24715;SDS011;12822;50.124;8.678;2024-02-23T09:43:19;12.70;;;1.88;;
24715;SDS011;12822;50.124;8.678;2024-02-23T09:45:46;12.13;;;2.45;;
24715;SDS011;12822;50.124;8.678;2024-02-23T09:48:12;9.20;;;1.60;;
24715;SDS011;12822;50.124;8.678;2024-02-23T09:50:40;8.90;;;1.90;;
24715;SDS011;12822;50.124;8.678;2024-02-23T09:53:06;9.27;;;1.33;;
24715;SDS011;12822;50.124;8.678;2024-02-23T09:55:35;8.73;;;1.73;;
24715;SDS011;12822;50.124;8.678;2024-02-23T09:58:01;9.80;;;1.75;;
24715;SDS011;12822;50.124;8.678;2024-02-23T10:00:28;5.95;;;1.73;;
24715;SDS011;12822;50.124;8.678;2024-02-23T10:02:55;8.40;;;2.10;;
24715;SDS011;12822;50.124;8.678;2024-02-23T10:05:30;5.32;;;1.48;;
24715;SDS011;12822;50.124;8.678;2024-02-23T10:07:57;9.10;;;1.98;;
24715;SDS011;12822;50.124;8.678;2024-02-23T10:10:32;12.30;;;1.67;;
24715;SDS011;12822;50.124;8.678;2024-02-23T10:13:02;10.48;;;1.63;;
24715;SDS011;12822;50.124;8.678;2024-02-23T10:15:31;14.00;;;2.38;;
24715;SDS011;12822;50.124;8.678;2024-02-23T10:17:57;8.30;;;1.60;;
24715;SDS011;12822;50.124;8.678;2024-02-23T10:20:23;5.15;;;1.35;;
24715;SDS011;12822;50.124;8.678;2024-02-23T10:22:49;10.77;;;1.45;;
24715;SDS011;12822;50.124;8.678;2024-02-23T10:25:17;7.05;;;1.23;;
24715;SDS011;12822;50.124;8.678;2024-02-23T10:27:43;11.00;;;1.55;;
24715;SDS011;12822;50.124;8.678;2024-02-23T10:30:09;7.72;;;1.35;;
24715;SDS011;12822;50.124;8.678;2024-02-23T10:32:40;9.65;;;1.95;;
24715;SDS011;12822;50.124;8.678;2024-02-23T10:35:16;7.28;;;1.70;;
24715;SDS011;12822;50.124;8.678;2024-02-23T10:37:42;12.48;;;1.83;;
24715;SDS011;12822;50.124;8.678;2024-02-23T10:40:11;12.95;;;1.83;;
24715;SDS011;12822;50.124;8.678;2024-02-23T10:42:38;9.57;;;1.45;;
24715;SDS011;12822;50.124;8.678;2024-02-23T10:45:06;7.90;;;1.80;;
24715;SDS011;12822;50.124;8.678;2024-02-23T10:47:33;8.50;;;1.60;;
24715;SDS011;12822;50.124;8.678;2024-02-23T10:50:02;6.35;;;1.15;;
24715;SDS011;12822;50.124;8.678;2024-02-23T10:52:29;9.57;;;2.40;;
24715;SDS011;12822;50.124;8.678;2024-02-23T10:54:56;11.07;;;1.73;;
24715;SDS011;12822;50.124;8.678;2024-02-23T10:57:23;11.48;;;1.73;;
24715;SDS011;12822;50.124;8.678;2024-02-23T10:59:49;10.88;;;1.58;;
24715;SDS011;12822;50.124;8.678;2024-02-23T11:02:16;5.00;;;1.13;;
24715;SDS011;12822;50.124;8.678;2024-02-23T11:04:46;9.10;;;1.13;;
24715;SDS011;12822;50.124;8.678;2024-02-23T11:07:17;9.23;;;1.63;;
24715;SDS011;12822;50.124;8.678;2024-02-23T11:09:48;12.43;;;1.95;;
24715;SDS011;12822;50.124;8.678;2024-02-23T11:12:21;8.05;;;1.33;;
24715;SDS011;12822;50.124;8.678;2024-02-23T11:14:49;6.30;;;1.45;;
24715;SDS011;12822;50.124;8.678;2024-02-23T11:17:18;13.68;;;1.70;;
24715;SDS011;12822;50.124;8.678;2024-02-23T11:19:50;7.85;;;1.90;;
24715;SDS011;12822;50.124;8.678;2024-02-23T11:22:24;12.82;;;2.08;;
24715;SDS011;12822;50.124;8.678;2024-02-23T11:24:51;11.65;;;1.70;;
24715;SDS011;12822;50.124;8.678;2024-02-23T11:27:17;10.48;;;1.80;;
24715;SDS011;12822;50.124;8.678;2024-02-23T11:29:44;10.88;;;2.10;;
24715;SDS011;12822;50.124;8.678;2024-02-23T11:32:14;7.93;;;2.25;;
24715;SDS011;12822;50.124;8.678;2024-02-23T11:34:40;8.00;;;2.25;;
24715;SDS011;12822;50.124;8.678;2024-02-23T11:37:07;8.20;;;2.17;;
24715;SDS011;12822;50.124;8.678;2024-02-23T11:39:33;11.25;;;1.95;;
24715;SDS011;12822;50.124;8.678;2024-02-23T11:42:00;11.13;;;1.70;;
24715;SDS011;12822;50.124;8.678;2024-02-23T11:44:26;9.95;;;1.92;;
24715;SDS011;12822;50.124;8.678;2024-02-23T11:46:52;7.55;;;1.52;;
24715;SDS011;12822;50.124;8.678;2024-02-23T11:49:18;11.02;;;1.85;;
24715;SDS011;12822;50.124;8.678;2024-02-23T11:51:44;9.82;;;1.98;;
24715;SDS011;12822;50.124;8.678;2024-02-23T11:54:11;6.40;;;1.50;;
24715;SDS011;12822;50.124;8.678;2024-02-23T11:56:37;9.13;;;1.35;;
24715;SDS011;12822;50.124;8.678;2024-02-23T11:59:03;7.38;;;1.73;;
24715;SDS011;12822;50.124;8.678;2024-02-23T12:01:29;6.95;;;1.33;;
24715;SDS011;12822;50.124;8.678;2024-02-23T12:03:56;6.07;;;1.75;;
24715;SDS011;12822;50.124;8.678;2024-02-23T12:06:23;6.90;;;1.40;;
24715;SDS011;12822;50.124;8.678;2024-02-23T12:08:49;5.97;;;1.75;;
24715;SDS011;12822;50.124;8.678;2024-02-23T12:11:15;9.48;;;1.80;;
24715;SDS011;12822;50.124;8.678;2024-02-23T12:13:41;6.68;;;1.67;;
24715;SDS011;12822;50.124;8.678;2024-02-23T12:16:07;6.28;;;1.70;;
24715;SDS011;12822;50.124;8.678;2024-02-23T12:18:34;7.65;;;1.83;;
24715;SDS011;12822;50.124;8.678;2024-02-23T12:21:01;7.97;;;2.15;;
24715;SDS011;12822;50.124;8.678;2024-02-23T12:23:42;7.68;;;1.63;;
24715;SDS011;12822;50.124;8.678;2024-02-23T12:26:13;13.52;;;2.33;;
24715;SDS011;12822;50.124;8.678;2024-02-23T12:28:39;6.43;;;1.92;;
24715;SDS011;12822;50.124;8.678;2024-02-23T12:31:05;11.18;;;1.48;;
24715;SDS011;12822;50.124;8.678;2024-02-23T12:33:33;6.43;;;1.88;;
24715;SDS011;12822;50.124;8.678;2024-02-23T12:36:05;11.70;;;2.08;;
24715;SDS011;12822;50.124;8.678;2024-02-23T12:38:31;7.28;;;2.10;;
24715;SDS011;12822;50.124;8.678;2024-02-23T12:40:58;10.13;;;2.00;;
24715;SDS011;12822;50.124;8.678;2024-02-23T12:43:25;11.13;;;2.00;;
24715;SDS011;12822;50.124;8.678;2024-02-23T12:45:54;10.82;;;1.92;;
24715;SDS011;12822;50.124;8.678;2024-02-23T12:48:21;11.77;;;1.80;;
24715;SDS011;12822;50.124;8.678;2024-02-23T12:50:48;8.43;;;1.65;;
24715;SDS011;12822;50.124;8.678;2024-02-23T12:56:09;9.18;;;2.10;;
24715;SDS011;12822;50.124;8.678;2024-02-23T12:58:36;12.13;;;2.00;;
24715;SDS011;12822;50.124;8.678;2024-02-23T13:01:02;10.88;;;1.90;;
24715;SDS011;12822;50.124;8.678;2024-02-23T13:03:28;10.20;;;1.80;;
24715;SDS011;12822;50.124;8.678;2024-02-23T13:05:55;10.60;;;1.58;;
24715;SDS011;12822;50.124;8.678;2024-02-23T13:08:22;11.15;;;1.73;;
24715;SDS011;12822;50.124;8.678;2024-02-23T13:10:48;7.78;;;1.40;;
24715;SDS011;12822;50.124;8.678;2024-02-23T13:13:14;8.50;;;1.90;;
24715;SDS011;12822;50.124;8.678;2024-02-23T13:15:41;14.00;;;2.58;;
24715;SDS011;12822;50.124;8.678;2024-02-23T13:18:07;9.13;;;2.08;;
24715;SDS011;12822;50.124;8.678;2024-02-23T13:20:34;5.43;;;1.58;;
24715;SDS011;12822;50.124;8.678;2024-02-23T13:23:00;17.15;;;1.90;;
24715;SDS011;12822;50.124;8.678;2024-02-23T13:25:27;11.35;;;1.83;;
24715;SDS011;12822;50.124;8.678;2024-02-23T13:27:53;6.20;;;1.67;;
24715;SDS011;12822;50.124;8.678;2024-02-23T13:30:19;8.63;;;1.90;;
24715;SDS011;12822;50.124;8.678;2024-02-23T13:32:45;6.45;;;1.40;;
24715;SDS011;12822;50.124;8.678;2024-02-23T13:35:11;8.13;;;1.83;;
24715;SDS011;12822;50.124;8.678;2024-02-23T13:37:39;7.43;;;1.55;;
24715;SDS011;12822;50.124;8.678;2024-02-23T13:40:05;6.00;;;1.58;;
24715;SDS011;12822;50.124;8.678;2024-02-23T13:42:34;7.00;;;1.85;;
24715;SDS011;12822;50.124;8.678;2024-02-23T13:45:00;9.48;;;1.70;;
24715;SDS011;12822;50.124;8.678;2024-02-23T13:47:26;19.55;;;1.50;;
24715;SDS011;12822;50.124;8.678;2024-02-23T13:49:52;8.43;;;1.73;;
24715;SDS011;12822;50.124;8.678;2024-02-23T13:52:18;7.63;;;1.58;;
24715;SDS011;12822;50.124;8.678;2024-02-23T13:54:44;11.40;;;2.30;;
24715;SDS011;12822;50.124;8.678;2024-02-23T13:57:10;6.22;;;1.70;;
24715;SDS011;12822;50.124;8.678;2024-02-23T13:59:36;5.90;;;1.80;;
24715;SDS011;12822;50.124;8.678;2024-02-23T14:02:02;11.27;;;2.45;;
24715;SDS011;12822;50.124;8.678;2024-02-23T14:04:28;9.93;;;1.60;;
24715;SDS011;12822;50.124;8.678;2024-02-23T14:06:54;8.30;;;1.50;;
24715;SDS011;12822;50.124;8.678;2024-02-23T14:09:20;8.98;;;1.58;;
24715;SDS011;12822;50.124;8.678;2024-02-23T14:11:46;11.63;;;2.45;;
24715;SDS011;12822;50.124;8.678;2024-02-23T14:14:12;6.63;;;1.65;;
24715;SDS011;12822;50.124;8.678;2024-02-23T14:16:38;11.13;;;2.58;;
24715;SDS011;12822;50.124;8.678;2024-02-23T14:19:04;6.18;;;1.52;;
24715;SDS011;12822;50.124;8.678;2024-02-23T14:21:30;10.00;;;1.65;;
24715;SDS011;12822;50.124;8.678;2024-02-23T14:23:56;10.85;;;1.60;;
24715;SDS011;12822;50.124;8.678;2024-02-23T14:26:22;6.15;;;1.40;;
24715;SDS011;12822;50.124;8.678;2024-02-23T14:28:49;6.72;;;1.40;;
24715;SDS011;12822;50.124;8.678;2024-02-23T14:31:15;8.38;;;1.17;;
24715;SDS011;12822;50.124;8.678;2024-02-23T14:33:41;5.07;;;1.35;;
24715;SDS011;12822;50.124;8.678;2024-02-23T14:36:08;5.72;;;1.48;;
24715;SDS011;12822;50.124;8.678;2024-02-23T14:38:34;3.90;;;1.17;;
24715;SDS011;12822;50.124;8.678;2024-02-23T14:41:00;6.43;;;1.50;;
24715;SDS011;12822;50.124;8.678;2024-02-23T14:43:26;8.15;;;1.50;;